Weather History for St. Francis, KS

Change the Weather History Date:

Sunday, May 6, 2012

  Actual Average Record
Temperature  
Mean Temperature 60 °F -  
Max Temperature 67 °F 71 °F 80 °F (2014)
Min Temperature 52 °F 43 °F 36 °F (2013)
Degree Days  
Heating Degree Days 6    
Growing Degree Days 10 (Base 50)    
Moisture  
Dew Point 39 °F    
Average Humidity 51    
Maximum Humidity 79    
Minimum Humidity 22    
Precipitation  
Precipitation 0.00 in - - ()
Sea Level Pressure  
Sea Level Pressure 30.08 in    
Wind  
Wind Speed 17 mph ()    
Max Wind Speed 26 mph    
Max Gust Speed 37 mph    
Visibility 10.0 miles    
Events      
Averages and records for this station are not official NWS values.
T = Trace of Precipitation, MM = Missing Value Source: Averaged Metar Reports

Daily Weather History Graph

Daily Weather History Graph

Search for Another Location

Airport:

Trip Planner

Search our weather history database for the weather conditions in past years. The results will help you decide how hot, cold, wet, or windy it might be!

Date:

Astronomy

May. 06, 2012 Rise Set
Actual Time 6:41 AM CDT 8:46 PM CDT
Civil Twilight 6:11 AM CDT 9:16 PM CDT
Nautical Twilight 5:35 AM CDT 9:53 PM CDT
Astronomical Twilight 4:55 AM CDT 10:32 PM CDT
Moon 9:54 PM CDT (5/6) 6:53 AM CDT (5/6)
Length of Visible Light 15h 05m
Length of Day
14h 05m
Full, 100% of the Moon is Illuminated
May 6
Full
May 12
Last Quarter
May 20
New
May 28
First Quarter
Jun 4
Full

Hourly Weather History & Observations

Time (CDT) Temp. Dew Point Humidity Pressure Visibility Wind Dir Wind Speed Gust Speed Precip Events Conditions
12:15 AM 62.6 °F 55.2 °F 77% 29.86 in 10.0 mi North 23.0 mph 35.7 mph N/A   Overcast
12:35 AM 61.7 °F 54.5 °F 77% 29.88 in 10.0 mi North 23.0 mph 34.5 mph N/A   Overcast
12:55 AM 61.7 °F 54.0 °F 76% 29.89 in 10.0 mi North 24.2 mph 35.7 mph N/A   Overcast
1:15 AM 61.7 °F 53.6 °F 75% 29.90 in 10.0 mi North 26.5 mph 33.4 mph N/A   Mostly Cloudy
1:35 AM 61.3 °F 54.0 °F 77% 29.92 in 10.0 mi North 18.4 mph 34.5 mph N/A   Mostly Cloudy
1:55 AM 61.7 °F 53.8 °F 75% 29.92 in 10.0 mi North 25.3 mph 33.4 mph N/A   Overcast
2:15 AM 60.8 °F 53.1 °F 76% 29.93 in 10.0 mi North 23.0 mph 35.7 mph N/A   Mostly Cloudy
2:35 AM 60.1 °F 52.5 °F 76% 29.92 in 10.0 mi North 21.9 mph 29.9 mph N/A   Clear
2:55 AM 59.9 °F 52.2 °F 76% 29.94 in 10.0 mi NNE 19.6 mph 29.9 mph N/A   Clear
3:15 AM 59.0 °F 52.0 °F 78% 29.95 in 10.0 mi NNE 17.3 mph 25.3 mph N/A   Clear
3:35 AM 58.5 °F 51.8 °F 79% 29.98 in 10.0 mi North 15.0 mph 21.9 mph N/A   Scattered Clouds
3:55 AM 59.4 °F 51.1 °F 74% 29.99 in 10.0 mi North 23.0 mph 28.8 mph N/A   Mostly Cloudy
4:15 AM 59.4 °F 50.5 °F 73% 29.99 in 10.0 mi North 21.9 mph 36.8 mph N/A   Overcast
4:35 AM 59.0 °F 51.3 °F 75% 29.99 in 10.0 mi North 16.1 mph 25.3 mph N/A   Overcast
4:55 AM 58.5 °F 50.0 °F 73% 30.00 in 10.0 mi North 18.4 mph 33.4 mph N/A   Overcast
5:15 AM 58.1 °F 50.0 °F 74% 30.00 in 10.0 mi North 19.6 mph 28.8 mph N/A   Overcast
5:35 AM 57.6 °F 49.5 °F 74% 30.02 in 10.0 mi North 21.9 mph 27.6 mph N/A   Overcast
5:55 AM 55.9 °F 48.2 °F 75% 30.03 in 10.0 mi North 20.7 mph 34.5 mph N/A   Overcast
6:15 AM 55.6 °F 48.4 °F 77% 30.03 in 10.0 mi North 23.0 mph 28.8 mph N/A   Overcast
6:35 AM 55.4 °F 48.0 °F 76% 30.04 in 10.0 mi North 23.0 mph 32.2 mph N/A   Overcast
7:15 AM 53.6 °F 46.8 °F 78% 30.07 in 10.0 mi North 20.7 mph 26.5 mph N/A   Overcast
7:35 AM 53.6 °F 46.6 °F 77% 30.09 in 10.0 mi North 12.7 mph 20.7 mph N/A   Overcast
7:55 AM 53.2 °F 46.2 °F 77% 30.11 in 10.0 mi North 15.0 mph 21.9 mph N/A   Overcast
8:15 AM 52.7 °F 45.1 °F 75% 30.13 in 10.0 mi North 16.1 mph 24.2 mph N/A   Mostly Cloudy
8:35 AM 53.4 °F 43.9 °F 70% 30.13 in 10.0 mi North 13.8 mph 24.2 mph N/A   Scattered Clouds
8:55 AM 55.0 °F 42.4 °F 63% 30.13 in 10.0 mi North 17.3 mph 24.2 mph N/A   Clear
9:15 AM 54.7 °F 41.2 °F 60% 30.14 in 10.0 mi North 20.7 mph 26.5 mph N/A   Clear
9:35 AM 55.6 °F 40.8 °F 58% 30.15 in 10.0 mi North 16.1 mph 26.5 mph N/A   Mostly Cloudy
9:55 AM 56.1 °F 40.6 °F 56% 30.15 in 10.0 mi North 18.4 mph 25.3 mph N/A   Overcast
10:15 AM 56.5 °F 39.6 °F 53% 30.15 in 10.0 mi North 18.4 mph 24.2 mph N/A   Mostly Cloudy
10:35 AM 57.9 °F 39.2 °F 50% 30.15 in 10.0 mi North 15.0 mph - N/A   Scattered Clouds
10:55 AM 59.9 °F 37.9 °F 44% 30.16 in 10.0 mi North 18.4 mph 25.3 mph N/A   Clear
11:15 AM 61.3 °F 36.0 °F 39% 30.16 in 10.0 mi North 17.3 mph 25.3 mph N/A   Scattered Clouds
11:35 AM 60.6 °F 35.1 °F 38% 30.16 in 10.0 mi North 17.3 mph 28.8 mph N/A   Clear
11:55 AM 61.5 °F 33.8 °F 35% 30.15 in 10.0 mi North 20.7 mph 26.5 mph N/A   Scattered Clouds
12:15 PM 62.2 °F 36.1 °F 38% 30.15 in 10.0 mi NNW 17.3 mph 24.2 mph N/A   Scattered Clouds
12:35 PM 61.9 °F 34.3 °F 36% 30.15 in 10.0 mi North 19.6 mph 27.6 mph N/A   Clear
12:55 PM 62.2 °F 34.7 °F 36% 30.14 in 10.0 mi North 18.4 mph 25.3 mph N/A   Scattered Clouds
1:15 PM 63.9 °F 34.7 °F 34% 30.13 in 10.0 mi North 16.1 mph 25.3 mph N/A   Scattered Clouds
1:35 PM 65.1 °F 33.8 °F 31% 30.13 in 10.0 mi North 17.3 mph 27.6 mph N/A   Clear
1:55 PM 64.0 °F 32.7 °F 31% 30.13 in 10.0 mi NNW 16.1 mph 21.9 mph N/A   Mostly Cloudy
2:15 PM 62.2 °F 35.4 °F 37% 30.13 in 10.0 mi North 20.7 mph 25.3 mph N/A   Mostly Cloudy
2:35 PM 65.1 °F 34.3 °F 32% 30.13 in 10.0 mi North 16.1 mph 23.0 mph N/A   Scattered Clouds
2:55 PM 63.9 °F 33.1 °F 32% 30.13 in 10.0 mi North 13.8 mph 25.3 mph N/A   Scattered Clouds
3:15 PM 65.5 °F 32.7 °F 30% 30.13 in 10.0 mi North 16.1 mph 21.9 mph N/A   Clear
3:35 PM 65.7 °F 31.8 °F 28% 30.12 in 10.0 mi North 18.4 mph 25.3 mph N/A   Clear
3:55 PM 66.2 °F 31.6 °F 28% 30.12 in 10.0 mi North 18.4 mph 24.2 mph N/A   Clear
4:15 PM 66.6 °F 28.0 °F 24% 30.12 in 10.0 mi North 17.3 mph 24.2 mph N/A   Clear
4:35 PM 66.7 °F 28.0 °F 23% 30.12 in 10.0 mi NNE 16.1 mph 24.2 mph N/A   Clear
4:55 PM 67.1 °F 28.4 °F 23% 30.11 in 10.0 mi NNE 13.8 mph 23.0 mph N/A   Clear
5:15 PM 67.1 °F 28.2 °F 23% 30.10 in 10.0 mi NNE 17.3 mph 23.0 mph N/A   Clear
5:35 PM 64.9 °F 27.1 °F 24% 30.10 in 10.0 mi NE 16.1 mph - N/A   Scattered Clouds
5:55 PM 65.8 °F 25.7 °F 22% 30.10 in 10.0 mi NE 16.1 mph 20.7 mph N/A   Scattered Clouds
6:15 PM 66.6 °F 26.2 °F 22% 30.10 in 10.0 mi NE 17.3 mph 23.0 mph N/A   Scattered Clouds
6:35 PM 66.2 °F 25.9 °F 22% 30.10 in 10.0 mi NE 18.4 mph 23.0 mph N/A   Scattered Clouds
6:55 PM 63.0 °F 27.1 °F 26% 30.10 in 10.0 mi NE 13.8 mph - N/A   Scattered Clouds
7:15 PM 62.6 °F 26.8 °F 26% 30.10 in 10.0 mi NE 11.5 mph 17.3 mph N/A   Mostly Cloudy
7:35 PM 62.2 °F 26.2 °F 25% 30.10 in 10.0 mi NE 15.0 mph - N/A   Overcast
7:55 PM 61.0 °F 27.3 °F 28% 30.10 in 10.0 mi NE 13.8 mph - N/A   Overcast
8:15 PM 58.5 °F 29.3 °F 33% 30.10 in 10.0 mi ENE 10.4 mph - N/A   Scattered Clouds
8:35 PM 56.3 °F 31.5 °F 39% 30.12 in 10.0 mi ENE 6.9 mph - N/A   Mostly Cloudy
8:55 PM 54.9 °F 32.4 °F 42% 30.13 in 10.0 mi NE 4.6 mph - N/A   Overcast
9:35 PM 53.6 °F 33.8 °F 47% 30.15 in 10.0 mi NNE 3.5 mph - N/A   Overcast
9:55 PM 54.5 °F 34.2 °F 46% 30.17 in 10.0 mi Calm Calm - N/A   Overcast
10:15 PM 54.5 °F 33.4 °F 45% 30.18 in 10.0 mi Calm Calm - N/A   Overcast
10:35 PM 54.0 °F 34.9 °F 49% 30.19 in 10.0 mi NNE 3.5 mph - N/A   Overcast
10:55 PM 53.8 °F 35.1 °F 49% 30.19 in 10.0 mi Calm Calm - N/A   Overcast
11:15 PM 53.2 °F 38.5 °F 57% 30.19 in 10.0 mi Calm Calm - N/A   Overcast
11:35 PM 52.3 °F 37.6 °F 57% 30.19 in 10.0 mi NNE 3.5 mph - N/A   Overcast
11:55 PM 52.0 °F 37.6 °F 58% 30.19 in 10.0 mi Calm Calm - N/A   Mostly Cloudy